AAL2036 KLGA-KCLT
Flight info
| Callsign | AAL2036 |
|---|---|
| Flight time | N/A |
| Altitude | 38000 |
| Route | BIGGY Q75 GVE AIROW CHSLY6 |
| Aircraft | A319/M-VGDW/C |
Departure
| Time | 2026-05-06 01:40 |
|---|---|
| Airport | LaGuardia Airport (KLGA) |
Arrival
| Time | N/A |
|---|---|
| Airport | Charlotte Douglas International Airport (KCLT) |
| Time | Latitude | Longitude | Altitude | Speed | Heading |
|---|---|---|---|---|---|
| 2026-05-06 01:26 | 40.77462 | -73.86972 | 20 ft | 0 kts | 125° |
| 2026-05-06 01:31 | 40.77469 | -73.86986 | 20 ft | 4 kts | 122° |
| 2026-05-06 01:31 | 40.77480 | -73.87017 | 22 ft | 4 kts | 97° |
| 2026-05-06 01:31 | 40.77476 | -73.87044 | 24 ft | 4 kts | 33° |
| 2026-05-06 01:32 | 40.77489 | -73.87032 | 21 ft | 4 kts | 34° |
| 2026-05-06 01:32 | 40.77505 | -73.87020 | 20 ft | 0 kts | 30° |
| 2026-05-06 01:34 | 40.77525 | -73.87004 | 20 ft | 7 kts | 32° |
| 2026-05-06 01:34 | 40.77575 | -73.86962 | 18 ft | 11 kts | 32° |
| 2026-05-06 01:34 | 40.77637 | -73.86980 | 16 ft | 11 kts | 302° |
| 2026-05-06 01:34 | 40.77698 | -73.86985 | 13 ft | 9 kts | 0° |
| 2026-05-06 01:35 | 40.77737 | -73.87055 | 13 ft | 10 kts | 301° |
| 2026-05-06 01:35 | 40.77777 | -73.87141 | 14 ft | 12 kts | 302° |
| 2026-05-06 01:35 | 40.77825 | -73.87241 | 14 ft | 14 kts | 302° |
| 2026-05-06 01:35 | 40.77878 | -73.87352 | 14 ft | 15 kts | 302° |
| 2026-05-06 01:36 | 40.77923 | -73.87445 | 17 ft | 7 kts | 302° |
| 2026-05-06 01:36 | 40.77925 | -73.87449 | 16 ft | 0 kts | 302° |
| 2026-05-06 01:38 | 40.77931 | -73.87463 | 15 ft | 4 kts | 302° |
| 2026-05-06 01:38 | 40.77964 | -73.87531 | 16 ft | 13 kts | 302° |
| 2026-05-06 01:38 | 40.78020 | -73.87648 | 15 ft | 16 kts | 302° |
| 2026-05-06 01:38 | 40.78078 | -73.87771 | 17 ft | 15 kts | 302° |
| 2026-05-06 01:39 | 40.78122 | -73.87852 | 19 ft | 8 kts | 326° |
| 2026-05-06 01:39 | 40.78142 | -73.87859 | 27 ft | 0 kts | 349° |
| 2026-05-06 01:39 | 40.78151 | -73.87861 | 35 ft | 4 kts | 349° |
| 2026-05-06 01:39 | 40.78189 | -73.87863 | 16 ft | 7 kts | 14° |
| 2026-05-06 01:40 | 40.78196 | -73.87786 | 15 ft | 16 kts | 123° |
| 2026-05-06 01:40 | 40.78019 | -73.87411 | 15 ft | 86 kts | 122° |
| 2026-05-06 01:40 | 40.77573 | -73.86495 | 59 ft | 143 kts | 127° |
| 2026-05-06 01:40 | 40.77025 | -73.85360 | 659 ft | 149 kts | 131° |
| 2026-05-06 01:41 | 40.76324 | -73.84397 | 1310 ft | 141 kts | 160° |
| 2026-05-06 01:41 | 40.75454 | -73.83937 | 2000 ft | 136 kts | 180° |
| 2026-05-06 01:41 | 40.74455 | -73.83634 | 2445 ft | 159 kts | 178° |
| 2026-05-06 01:41 | 40.73297 | -73.83286 | 2851 ft | 181 kts | 179° |
| 2026-05-06 01:42 | 40.72020 | -73.83409 | 3262 ft | 193 kts | 208° |
| 2026-05-06 01:42 | 40.70993 | -73.84631 | 3762 ft | 215 kts | 241° |
| 2026-05-06 01:42 | 40.70446 | -73.86561 | 4527 ft | 231 kts | 250° |
| 2026-05-06 01:42 | 40.69941 | -73.88592 | 5518 ft | 236 kts | 251° |
| 2026-05-06 01:43 | 40.69429 | -73.90671 | 6529 ft | 241 kts | 251° |
| 2026-05-06 01:43 | 40.68903 | -73.92802 | 7453 ft | 247 kts | 251° |
| 2026-05-06 01:43 | 40.68359 | -73.94983 | 8372 ft | 254 kts | 251° |
| 2026-05-06 01:43 | 40.67799 | -73.97223 | 9282 ft | 260 kts | 252° |
| 2026-05-06 01:44 | 40.67229 | -73.99495 | 10159 ft | 267 kts | 251° |
| 2026-05-06 01:44 | 40.66636 | -74.01837 | 10596 ft | 289 kts | 251° |
| 2026-05-06 01:44 | 40.65985 | -74.04406 | 11272 ft | 300 kts | 251° |
| 2026-05-06 01:44 | 40.65318 | -74.07041 | 12029 ft | 307 kts | 251° |
| 2026-05-06 01:45 | 40.64638 | -74.09729 | 12893 ft | 311 kts | 250° |
| 2026-05-06 01:45 | 40.63949 | -74.12443 | 13759 ft | 315 kts | 250° |
| 2026-05-06 01:45 | 40.63247 | -74.15194 | 14534 ft | 318 kts | 250° |
| 2026-05-06 01:45 | 40.62538 | -74.17962 | 15346 ft | 321 kts | 250° |
| 2026-05-06 01:46 | 40.61823 | -74.20753 | 16148 ft | 323 kts | 250° |
| 2026-05-06 01:46 | 40.61103 | -74.23564 | 16936 ft | 325 kts | 250° |